Time;durP1;ratioP1;P1;durP2;ratioP2;P2;SDS_P1;SDS_P2;PMS_P1;PMS_P2;Temp;Humidity;BMP_temperature;BMP_pressure;BME280_temperature;BME280_humidity;BME280_pressure;Samples;Min_cycle;Max_cycle;Signal;HPM_P1;HPM_P2
2023/02/01 00:02:40;;;;;;;8.60;6.35;;;5.90;99.90;;;;;;5025013;28;20209;-74
2023/02/01 00:05:25;;;;;;;8.48;6.75;;;5.90;99.90;;;;;;5016444;28;20754;-74
2023/02/01 00:08:11;;;;;;;8.38;6.22;;;5.90;99.90;;;;;;5013374;28;20531;-73
2023/02/01 00:11:01;;;;;;;9.93;6.93;;;5.90;99.90;;;;;;5018987;28;20857;-73
2023/02/01 00:13:48;;;;;;;8.20;6.13;;;5.90;99.90;;;;;;5020730;28;20210;-74
2023/02/01 00:16:33;;;;;;;8.90;6.28;;;5.90;99.90;;;;;;5017830;28;20591;-74
2023/02/01 00:19:19;;;;;;;10.93;7.10;;;5.90;99.90;;;;;;5025472;28;20209;-74
2023/02/01 00:22:05;;;;;;;7.55;5.80;;;5.90;99.90;;;;;;5016550;28;20643;-74
2023/02/01 00:24:50;;;;;;;7.73;6.50;;;6.00;99.90;;;;;;5007291;28;20312;-74
2023/02/01 00:27:36;;;;;;;10.32;6.43;;;6.00;99.90;;;;;;5018349;28;20446;-74
2023/02/01 00:30:23;;;;;;;12.23;7.70;;;5.90;99.90;;;;;;5021474;28;20233;-74
2023/02/01 00:33:09;;;;;;;7.60;6.03;;;6.00;99.90;;;;;;5024072;28;20271;-73
2023/02/01 00:35:58;;;;;;;8.07;6.03;;;6.10;99.90;;;;;;5016237;28;20217;-74
2023/02/01 00:38:44;;;;;;;8.60;6.25;;;6.10;99.90;;;;;;5023904;28;20679;-73
2023/02/01 00:41:29;;;;;;;9.15;6.00;;;6.00;99.90;;;;;;5010699;28;20243;-74
2023/02/01 00:44:15;;;;;;;7.07;5.50;;;6.00;99.90;;;;;;5015514;28;20198;-74
2023/02/01 00:47:02;;;;;;;9.75;6.18;;;6.00;99.90;;;;;;5024040;28;20273;-73
2023/02/01 00:49:48;;;;;;;10.50;6.45;;;5.90;99.90;;;;;;5023830;28;20745;-73
2023/02/01 00:52:33;;;;;;;11.90;5.93;;;5.90;99.90;;;;;;5018534;28;20255;-74
2023/02/01 00:55:19;;;;;;;7.32;6.53;;;5.90;99.90;;;;;;5016382;28;20683;-74
2023/02/01 00:58:05;;;;;;;10.15;6.80;;;5.90;99.90;;;;;;5023605;28;20209;-73
2023/02/01 01:00:51;;;;;;;11.07;6.20;;;5.90;99.90;;;;;;5025605;28;20228;-73
2023/02/01 01:03:40;;;;;;;8.23;6.65;;;5.90;99.90;;;;;;5024139;28;20201;-74
2023/02/01 01:06:28;;;;;;;8.80;6.00;;;5.90;99.90;;;;;;5018528;28;20696;-74
2023/02/01 01:09:14;;;;;;;8.77;6.45;;;6.00;99.90;;;;;;5021420;28;20205;-74
2023/02/01 01:12:02;;;;;;;9.25;7.35;;;6.00;99.90;;;;;;5025952;28;20253;-74
2023/02/01 01:14:48;;;;;;;9.88;7.03;;;6.10;99.90;;;;;;5026177;28;20213;-73
2023/02/01 01:17:34;;;;;;;10.88;7.18;;;6.10;99.90;;;;;;5025271;28;20264;-73
2023/02/01 01:20:21;;;;;;;8.55;7.22;;;6.10;99.90;;;;;;5023248;28;20296;-75
2023/02/01 01:23:08;;;;;;;15.23;7.72;;;6.10;99.90;;;;;;5027233;28;20209;-74
2023/02/01 01:25:54;;;;;;;9.27;6.68;;;6.10;99.90;;;;;;5020136;28;20210;-74
2023/02/01 01:28:39;;;;;;;10.65;7.22;;;6.00;99.90;;;;;;5030902;28;20202;-74
2023/02/01 01:31:25;;;;;;;12.02;6.45;;;6.10;99.90;;;;;;5027998;28;20229;-74
2023/02/01 01:34:11;;;;;;;9.43;7.32;;;6.10;99.90;;;;;;5022548;28;20209;-74
2023/02/01 01:36:58;;;;;;;8.85;6.90;;;6.20;99.90;;;;;;5027427;28;20336;-74
2023/02/01 01:39:43;;;;;;;10.20;6.88;;;6.20;99.90;;;;;;5026707;28;20245;-75
2023/02/01 01:42:29;;;;;;;7.68;6.60;;;6.10;99.90;;;;;;5018133;28;20353;-74
2023/02/01 01:45:24;;;;;;;12.45;6.68;;;6.10;99.90;;;;;;5016520;28;20210;-74
2023/02/01 01:48:14;;;;;;;9.32;6.57;;;6.10;99.90;;;;;;5024975;28;20299;-74
2023/02/01 01:51:05;;;;;;;9.77;7.17;;;6.10;99.90;;;;;;5024418;28;20241;-74
2023/02/01 01:53:59;;;;;;;9.25;7.10;;;6.20;99.90;;;;;;5026865;28;20447;-74
2023/02/01 01:56:51;;;;;;;12.15;8.15;;;6.10;99.90;;;;;;5018687;28;20697;-74
2023/02/01 01:59:40;;;;;;;10.53;7.83;;;6.00;99.90;;;;;;5017195;28;20333;-74
2023/02/01 02:02:26;;;;;;;10.48;6.55;;;6.00;99.90;;;;;;5021389;28;20973;-74
2023/02/01 02:05:13;;;;;;;9.65;6.80;;;6.10;99.90;;;;;;5023474;28;20296;-74
2023/02/01 02:08:01;;;;;;;8.63;6.40;;;6.10;99.90;;;;;;5026908;28;20528;-75
2023/02/01 02:11:01;;;;;;;7.93;5.88;;;6.10;99.90;;;;;;5023618;28;20320;-74
2023/02/01 02:13:49;;;;;;;8.75;6.35;;;6.10;99.90;;;;;;5019696;28;20213;-74
2023/02/01 02:16:59;;;;;;;8.38;6.57;;;6.20;99.90;;;;;;5016726;28;20734;-74
2023/02/01 02:20:26;;;;;;;10.00;7.90;;;6.20;99.90;;;;;;5023755;28;20233;-74
2023/02/01 02:23:38;;;;;;;10.07;7.00;;;6.20;99.90;;;;;;5019465;28;20643;-74
2023/02/01 02:27:04;;;;;;;8.60;6.57;;;6.20;99.90;;;;;;5025092;28;20676;-74
2023/02/01 02:30:18;;;;;;;8.65;6.60;;;6.20;99.90;;;;;;5016570;28;20297;-75
2023/02/01 02:33:51;;;;;;;11.77;7.05;;;6.00;99.90;;;;;;5023283;28;20280;-74
2023/02/01 02:36:44;;;;;;;7.93;6.95;;;6.10;99.90;;;;;;5023706;28;20242;-74
2023/02/01 02:39:39;;;;;;;9.05;7.20;;;6.10;99.90;;;;;;5027475;28;20216;-74
2023/02/01 02:48:52;;;;;;;8.70;6.53;;;6.00;99.90;;;;;;5025869;28;20229;-74
2023/02/01 02:54:51;;;;;;;8.70;7.00;;;6.10;99.90;;;;;;5024493;28;20252;-74
2023/02/01 03:04:08;;;;;;;10.25;6.95;;;5.90;99.90;;;;;;5020301;28;20197;-74
2023/02/01 03:06:54;;;;;;;7.65;6.72;;;5.90;99.90;;;;;;5023199;28;20321;-74
2023/02/01 03:09:42;;;;;;;10.35;7.30;;;5.90;99.90;;;;;;5026708;28;20228;-74
2023/02/01 03:15:37;;;;;;;10.07;6.93;;;6.00;99.90;;;;;;5023573;28;20221;-73
2023/02/01 03:18:29;;;;;;;10.20;7.15;;;5.90;99.90;;;;;;5025818;28;20655;-74
2023/02/01 03:21:19;;;;;;;8.30;6.75;;;6.00;99.90;;;;;;5025672;28;20225;-74
2023/02/01 03:24:11;;;;;;;11.98;6.88;;;6.00;99.90;;;;;;5017774;28;20202;-74
2023/02/01 03:26:58;;;;;;;12.40;7.93;;;6.00;99.90;;;;;;5016205;28;20189;-74
2023/02/01 03:29:49;;;;;;;9.40;7.10;;;6.00;99.90;;;;;;5024574;28;20229;-74
2023/02/01 03:35:44;;;;;;;9.73;7.35;;;6.00;99.90;;;;;;5022187;28;20548;-74
2023/02/01 03:38:34;;;;;;;9.90;7.55;;;6.00;99.90;;;;;;5027454;28;20230;-74
2023/02/01 03:41:25;;;;;;;11.02;7.43;;;6.00;99.90;;;;;;5022025;28;20607;-74
2023/02/01 03:44:16;;;;;;;14.70;8.23;;;5.90;99.90;;;;;;5022765;28;20222;-74
2023/02/01 03:47:08;;;;;;;9.25;7.18;;;5.90;99.90;;;;;;5018976;28;20202;-74
2023/02/01 03:49:58;;;;;;;12.63;8.57;;;5.90;99.90;;;;;;5016546;28;20271;-74
2023/02/01 03:52:47;;;;;;;16.15;8.50;;;5.80;99.90;;;;;;5015061;28;20730;-74
2023/02/01 03:55:37;;;;;;;13.60;8.40;;;5.80;99.90;;;;;;5021382;28;20213;-74
2023/02/01 03:58:24;;;;;;;12.38;8.85;;;5.80;99.90;;;;;;5017338;28;20226;-74
2023/02/01 04:01:10;;;;;;;13.70;7.85;;;5.90;99.90;;;;;;5024544;28;20236;-74
2023/02/01 04:03:56;;;;;;;10.88;7.55;;;5.80;99.90;;;;;;5015838;28;20209;-74
2023/02/01 04:06:41;;;;;;;12.18;6.97;;;6.00;99.90;;;;;;5012384;28;20205;-74
2023/02/01 04:09:27;;;;;;;9.55;7.32;;;5.90;99.90;;;;;;5024037;28;20201;-74
2023/02/01 04:12:14;;;;;;;9.95;7.53;;;5.90;99.90;;;;;;5024313;28;20214;-74
2023/02/01 04:14:59;;;;;;;10.27;6.50;;;5.90;99.90;;;;;;5021152;28;20205;-74
2023/02/01 04:17:45;;;;;;;17.60;7.93;;;5.80;99.90;;;;;;5020747;28;20599;-74
2023/02/01 04:20:31;;;;;;;8.98;6.68;;;5.90;99.90;;;;;;5012863;28;20228;-74
2023/02/01 04:23:16;;;;;;;12.10;7.70;;;6.00;99.90;;;;;;5020819;28;20209;-74
2023/02/01 04:26:03;;;;;;;11.27;8.13;;;6.00;99.90;;;;;;5023209;28;20583;-75
2023/02/01 04:28:50;;;;;;;10.27;7.45;;;6.10;99.90;;;;;;5020527;28;20198;-74
2023/02/01 04:31:36;;;;;;;9.27;8.20;;;6.10;99.90;;;;;;5021678;28;20232;-74
2023/02/01 04:34:24;;;;;;;9.00;7.65;;;6.20;99.90;;;;;;5021639;28;20206;-74
2023/02/01 04:37:10;;;;;;;10.50;7.40;;;6.20;99.90;;;;;;5023459;28;20341;-74
2023/02/01 04:39:55;;;;;;;9.25;7.22;;;6.30;99.90;;;;;;5014958;28;20481;-74
2023/02/01 04:42:41;;;;;;;13.95;8.25;;;6.30;99.90;;;;;;5028252;28;20666;-74
2023/02/01 04:45:28;;;;;;;10.60;7.82;;;6.30;99.90;;;;;;5020566;28;20679;-74
2023/02/01 04:48:14;;;;;;;9.82;8.10;;;6.20;99.90;;;;;;5026888;28;20784;-74
2023/02/01 04:50:59;;;;;;;9.23;7.07;;;6.20;99.90;;;;;;5023845;28;20728;-74
2023/02/01 04:53:45;;;;;;;7.90;7.05;;;6.20;99.90;;;;;;5017186;28;20269;-74
2023/02/01 04:56:32;;;;;;;9.30;7.72;;;6.20;99.90;;;;;;5024783;28;20210;-74
2023/02/01 04:59:18;;;;;;;11.15;7.65;;;6.10;99.90;;;;;;5020419;28;20284;-74
2023/02/01 05:02:04;;;;;;;11.82;7.75;;;6.20;99.90;;;;;;5021405;28;20209;-74
2023/02/01 05:04:50;;;;;;;11.25;7.90;;;6.20;99.90;;;;;;5024974;28;20841;-74
2023/02/01 05:07:36;;;;;;;10.40;7.95;;;6.10;99.90;;;;;;5024374;28;20248;-74
2023/02/01 05:10:22;;;;;;;10.10;7.30;;;6.10;99.90;;;;;;5021199;28;20221;-75
2023/02/01 05:16:12;;;;;;;12.48;6.53;;;6.10;99.90;;;;;;5021183;28;20190;-74
2023/02/01 05:18:59;;;;;;;11.53;7.17;;;6.10;99.90;;;;;;5026720;28;20209;-74
2023/02/01 05:21:45;;;;;;;15.50;6.95;;;6.10;99.90;;;;;;5019995;28;20467;-74
2023/02/01 05:24:31;;;;;;;7.85;6.18;;;6.10;99.90;;;;;;5025380;28;20565;-74
2023/02/01 05:27:16;;;;;;;10.50;5.97;;;6.10;99.90;;;;;;5026423;28;20220;-75
2023/02/01 05:30:03;;;;;;;18.23;5.07;;;6.10;99.90;;;;;;5029823;28;20716;-74
2023/02/01 05:32:51;;;;;;;5.85;4.13;;;6.10;99.90;;;;;;5026872;28;20201;-75
2023/02/01 05:35:38;;;;;;;4.95;4.18;;;6.20;99.90;;;;;;5026869;28;20209;-74
2023/02/01 05:38:23;;;;;;;8.47;4.27;;;6.20;99.90;;;;;;5014521;28;20303;-74
2023/02/01 05:41:09;;;;;;;8.93;4.90;;;6.10;99.90;;;;;;5023587;28;20996;-74
2023/02/01 05:43:54;;;;;;;5.45;4.30;;;6.10;99.90;;;;;;5022629;28;20210;-75
2023/02/01 05:46:40;;;;;;;10.50;4.80;;;6.10;99.90;;;;;;5024438;28;20201;-75
2023/02/01 05:49:26;;;;;;;9.17;6.27;;;6.10;99.90;;;;;;5026310;28;20500;-74
2023/02/01 05:52:13;;;;;;;19.67;7.35;;;6.20;99.90;;;;;;5022967;28;20836;-74
2023/02/01 05:54:58;;;;;;;10.63;7.47;;;6.20;99.90;;;;;;5020764;28;20201;-74
2023/02/01 05:57:44;;;;;;;13.18;7.90;;;6.10;99.90;;;;;;5027547;28;20220;-74
2023/02/01 06:00:30;;;;;;;14.30;9.23;;;6.10;99.90;;;;;;5019226;28;20706;-74
2023/02/01 06:03:15;;;;;;;16.42;8.93;;;6.10;99.90;;;;;;5026735;28;20739;-74
2023/02/01 06:06:01;;;;;;;15.02;10.15;;;6.00;99.90;;;;;;5025023;28;20579;-74
2023/02/01 06:08:48;;;;;;;13.18;9.38;;;6.10;99.90;;;;;;5029495;28;20205;-75
2023/02/01 06:11:34;;;;;;;12.25;10.57;;;6.10;99.90;;;;;;5016690;28;20221;-74
2023/02/01 06:14:20;;;;;;;18.30;9.82;;;6.10;99.90;;;;;;5023181;28;20753;-74
2023/02/01 06:17:06;;;;;;;14.35;10.75;;;6.10;99.90;;;;;;5021851;28;20210;-74
2023/02/01 06:19:52;;;;;;;20.15;10.82;;;6.20;99.90;;;;;;5021749;28;20287;-74
2023/02/01 06:22:37;;;;;;;13.10;9.35;;;6.20;99.90;;;;;;5024962;28;20264;-74
2023/02/01 06:25:24;;;;;;;15.30;9.55;;;6.20;99.90;;;;;;5014075;28;20213;-74
2023/02/01 06:28:10;;;;;;;13.23;10.15;;;6.20;99.90;;;;;;5018276;28;20272;-74
2023/02/01 06:30:57;;;;;;;16.50;10.20;;;6.10;99.90;;;;;;5018583;28;20222;-74
2023/02/01 06:33:43;;;;;;;12.18;9.05;;;6.10;99.90;;;;;;5025002;28;20241;-74
2023/02/01 06:36:28;;;;;;;16.63;9.90;;;6.20;99.90;;;;;;5024310;28;20686;-74
2023/02/01 06:39:15;;;;;;;15.50;10.18;;;6.20;99.90;;;;;;5015602;28;20225;-74
2023/02/01 06:42:02;;;;;;;16.98;9.63;;;6.20;99.90;;;;;;5025490;28;20329;-74
2023/02/01 06:44:47;;;;;;;13.82;8.05;;;6.20;99.90;;;;;;5027759;28;20213;-74
2023/02/01 06:47:33;;;;;;;10.63;7.82;;;6.20;99.90;;;;;;5015089;28;20758;-74
2023/02/01 06:50:19;;;;;;;15.98;9.18;;;6.20;99.90;;;;;;5022380;28;20225;-74
2023/02/01 06:53:04;;;;;;;18.02;10.77;;;6.20;99.90;;;;;;5021898;28;20214;-74
2023/02/01 06:55:54;;;;;;;13.40;9.13;;;6.30;99.90;;;;;;5026355;28;20272;-74
2023/02/01 06:58:41;;;;;;;20.40;9.27;;;6.30;99.90;;;;;;5017869;28;21005;-74
2023/02/01 07:01:27;;;;;;;21.13;10.20;;;6.30;99.90;;;;;;5021138;28;20221;-74
2023/02/01 07:04:13;;;;;;;15.93;10.27;;;6.30;99.90;;;;;;5011070;28;20540;-74
2023/02/01 07:06:58;;;;;;;13.25;9.82;;;6.20;99.90;;;;;;5021580;28;20440;-74
2023/02/01 07:09:44;;;;;;;16.43;10.20;;;6.20;99.90;;;;;;5019376;28;20217;-73
2023/02/01 07:12:30;;;;;;;17.77;9.50;;;6.20;99.90;;;;;;5018897;28;20434;-74
2023/02/01 07:15:18;;;;;;;21.42;12.60;;;6.20;99.90;;;;;;5020758;28;20206;-74
2023/02/01 07:18:03;;;;;;;17.13;10.85;;;6.20;99.90;;;;;;5024500;28;20620;-74
2023/02/01 07:20:52;;;;;;;11.50;7.65;;;6.20;99.90;;;;;;5017906;28;20246;-74
2023/02/01 07:23:38;;;;;;;9.23;8.23;;;6.10;99.90;;;;;;5011773;28;20739;-74
2023/02/01 07:26:24;;;;;;;14.13;9.23;;;6.10;99.90;;;;;;5014228;28;20466;-75
2023/02/01 07:29:09;;;;;;;13.93;8.70;;;6.10;99.90;;;;;;5020021;28;20690;-74
2023/02/01 07:31:56;;;;;;;15.80;10.02;;;6.10;99.90;;;;;;5019161;28;20210;-73
2023/02/01 07:34:41;;;;;;;10.77;8.50;;;6.10;99.90;;;;;;5019996;28;20206;-73
2023/02/01 07:37:27;;;;;;;29.33;14.90;;;6.10;99.90;;;;;;5025391;28;20448;-72
2023/02/01 07:40:13;;;;;;;46.60;23.77;;;6.10;99.90;;;;;;5022728;28;20285;-74
2023/02/01 07:42:59;;;;;;;26.17;14.70;;;6.10;99.90;;;;;;5010055;28;20447;-74
2023/02/01 07:45:52;;;;;;;54.58;27.38;;;6.20;99.90;;;;;;5011235;28;20420;-74
2023/02/01 07:48:39;;;;;;;29.08;14.43;;;6.10;99.90;;;;;;5025445;28;20220;-74
2023/02/01 07:51:25;;;;;;;32.33;17.20;;;6.10;99.90;;;;;;5019115;28;20681;-74
2023/02/01 07:54:11;;;;;;;35.10;16.60;;;6.00;99.90;;;;;;5017847;28;20452;-75
2023/02/01 07:56:57;;;;;;;16.05;8.60;;;6.10;99.90;;;;;;5019902;28;20447;-74
2023/02/01 08:02:42;;;;;;;21.55;9.35;;;6.10;99.90;;;;;;5016837;28;20251;-75
2023/02/01 08:05:29;;;;;;;9.82;7.60;;;6.20;99.90;;;;;;5017516;28;20213;-75
2023/02/01 08:08:15;;;;;;;9.60;7.00;;;6.30;99.90;;;;;;5025916;28;20800;-75
2023/02/01 08:11:02;;;;;;;15.38;8.15;;;6.30;99.90;;;;;;5020548;28;20304;-74
2023/02/01 08:13:48;;;;;;;14.67;7.80;;;6.30;99.90;;;;;;5020249;28;20222;-74
2023/02/01 08:16:37;;;;;;;19.92;8.10;;;6.20;99.90;;;;;;5021331;28;20467;-75
2023/02/01 08:19:22;;;;;;;16.23;7.70;;;6.20;99.90;;;;;;5023551;28;20344;-74
2023/02/01 08:22:09;;;;;;;15.02;8.32;;;6.20;99.90;;;;;;5019992;28;20200;-75
2023/02/01 08:25:01;;;;;;;14.98;8.05;;;6.20;99.90;;;;;;5017489;28;20332;-75
2023/02/01 08:27:46;;;;;;;14.80;8.65;;;6.30;99.90;;;;;;5024852;28;20706;-75
2023/02/01 08:30:32;;;;;;;13.70;8.25;;;6.30;99.90;;;;;;5021431;28;20738;-74
2023/02/01 08:33:18;;;;;;;13.80;8.73;;;6.30;99.90;;;;;;5026297;28;20344;-75
2023/02/01 08:36:05;;;;;;;15.85;9.60;;;6.30;99.90;;;;;;5016678;28;21083;-74
2023/02/01 08:38:52;;;;;;;14.47;7.33;;;6.40;99.90;;;;;;5003448;28;20737;-75
2023/02/01 08:41:38;;;;;;;24.60;6.43;;;6.40;99.90;;;;;;5019721;28;20479;-74
2023/02/01 08:44:23;;;;;;;17.42;6.95;;;6.40;99.90;;;;;;5016217;28;20291;-74
2023/02/01 08:47:09;;;;;;;10.25;6.28;;;6.30;99.90;;;;;;5021364;28;20267;-74
2023/02/01 08:49:54;;;;;;;13.93;7.07;;;6.30;99.90;;;;;;5012008;28;20604;-75
2023/02/01 08:52:40;;;;;;;12.57;6.53;;;6.40;99.90;;;;;;5024919;28;20218;-74
2023/02/01 08:55:28;;;;;;;16.77;7.80;;;6.40;99.90;;;;;;5022566;28;20232;-75
2023/02/01 08:58:16;;;;;;;12.48;5.88;;;6.40;99.90;;;;;;5016527;28;20484;-75
2023/02/01 09:01:04;;;;;;;10.38;5.80;;;6.40;99.90;;;;;;5018740;28;20804;-75
2023/02/01 09:03:50;;;;;;;13.48;5.90;;;6.40;99.90;;;;;;5015569;28;20765;-75
2023/02/01 09:06:36;;;;;;;17.17;5.15;;;6.50;99.90;;;;;;5019606;28;20210;-75
2023/02/01 09:09:22;;;;;;;12.47;5.33;;;6.50;99.90;;;;;;5018792;28;20198;-75
2023/02/01 09:12:09;;;;;;;11.45;4.82;;;6.50;99.90;;;;;;5026997;28;20424;-73
2023/02/01 09:14:55;;;;;;;12.93;4.60;;;6.50;99.90;;;;;;5023405;28;20329;-74
2023/02/01 09:17:43;;;;;;;11.93;6.68;;;6.60;99.90;;;;;;5019574;28;20451;-75
2023/02/01 09:20:29;;;;;;;10.88;4.28;;;6.60;99.90;;;;;;5020395;28;20365;-75
2023/02/01 09:23:14;;;;;;;15.70;4.45;;;6.60;99.90;;;;;;5014769;28;20213;-74
2023/02/01 09:26:00;;;;;;;12.45;5.40;;;6.60;99.90;;;;;;5024129;28;20210;-75
2023/02/01 09:28:48;;;;;;;13.30;4.40;;;6.60;99.90;;;;;;5017889;28;20283;-75
2023/02/01 09:31:33;;;;;;;12.73;5.78;;;6.70;99.90;;;;;;5026493;28;20233;-75
2023/02/01 09:34:19;;;;;;;15.02;7.53;;;6.70;99.90;;;;;;5018948;28;20287;-75
2023/02/01 09:37:05;;;;;;;14.75;5.13;;;6.60;99.90;;;;;;5012643;28;20707;-75
2023/02/01 09:39:51;;;;;;;14.02;5.40;;;6.60;99.90;;;;;;5015634;28;20748;-75
2023/02/01 09:42:54;;;;;;;15.60;5.25;;;6.60;99.90;;;;;;5023778;28;20782;-74
2023/02/01 09:45:49;;;;;;;13.95;4.63;;;6.60;99.90;;;;;;5018984;28;20690;-75
2023/02/01 09:48:39;;;;;;;12.23;6.50;;;6.70;99.90;;;;;;5022384;28;20204;-74
2023/02/01 09:51:30;;;;;;;17.40;6.05;;;6.70;99.90;;;;;;5022617;28;20441;-75
2023/02/01 09:54:19;;;;;;;23.98;8.63;;;6.80;99.90;;;;;;5018988;28;20207;-75
2023/02/01 09:57:09;;;;;;;14.27;6.70;;;6.80;99.90;;;;;;5026613;28;20690;-75
2023/02/01 10:00:01;;;;;;;9.93;5.43;;;6.80;99.90;;;;;;5026612;28;20237;-74
2023/02/01 10:02:49;;;;;;;21.95;7.45;;;6.80;99.90;;;;;;5021617;28;20202;-74
2023/02/01 10:05:52;;;;;;;12.80;6.07;;;6.80;99.90;;;;;;5021886;28;20269;-74
2023/02/01 10:08:57;;;;;;;16.23;5.15;;;6.80;99.90;;;;;;5018360;28;20303;-74
2023/02/01 10:11:51;;;;;;;15.45;4.80;;;6.90;99.90;;;;;;5022563;28;20225;-74
2023/02/01 10:14:52;;;;;;;14.15;6.32;;;6.80;99.90;;;;;;5014709;28;20584;-75
2023/02/01 10:18:01;;;;;;;18.10;4.55;;;6.90;99.90;;;;;;5017624;28;20679;-74
2023/02/01 10:20:58;;;;;;;16.60;4.82;;;6.90;99.90;;;;;;5028121;28;20222;-74
2023/02/01 10:24:03;;;;;;;12.02;4.50;;;6.90;99.90;;;;;;5023116;28;20321;-74
2023/02/01 10:26:56;;;;;;;14.52;4.75;;;6.90;99.90;;;;;;5021124;28;20594;-74
2023/02/01 10:29:43;;;;;;;16.52;4.05;;;6.90;99.90;;;;;;5025039;28;20345;-74
2023/02/01 10:32:32;;;;;;;10.57;3.45;;;7.00;99.90;;;;;;5017516;28;20288;-74
2023/02/01 10:35:23;;;;;;;13.43;4.00;;;7.00;99.90;;;;;;5023950;28;20263;-74
2023/02/01 10:38:18;;;;;;;10.60;3.00;;;6.90;99.90;;;;;;5024591;28;20300;-74
2023/02/01 10:41:12;;;;;;;12.27;4.22;;;6.90;99.90;;;;;;5025150;28;20790;-75
2023/02/01 10:43:59;;;;;;;13.67;3.47;;;6.90;99.90;;;;;;5012689;28;20202;-74
2023/02/01 10:46:45;;;;;;;15.10;4.10;;;6.90;99.90;;;;;;5013110;28;20447;-74
2023/02/01 10:49:39;;;;;;;15.52;5.07;;;6.90;99.90;;;;;;5020772;28;20846;-74
2023/02/01 10:52:35;;;;;;;41.35;4.10;;;6.90;99.90;;;;;;5018770;28;20622;-74
2023/02/01 10:55:29;;;;;;;23.88;4.85;;;6.90;99.90;;;;;;5028227;28;20234;-74
2023/02/01 10:58:18;;;;;;;17.30;3.50;;;6.90;99.90;;;;;;5023915;28;20206;-74
2023/02/01 11:01:05;;;;;;;18.05;3.97;;;6.90;99.90;;;;;;5021937;28;20243;-74
2023/02/01 11:03:56;;;;;;;11.60;3.65;;;7.00;99.90;;;;;;5018647;28;20205;-74
2023/02/01 11:06:44;;;;;;;24.45;5.72;;;7.00;99.90;;;;;;5018795;28;20205;-74
2023/02/01 11:09:32;;;;;;;11.85;4.13;;;7.00;99.90;;;;;;5024629;28;20234;-74
2023/02/01 11:12:36;;;;;;;11.80;4.25;;;7.00;99.90;;;;;;5020661;28;20795;-74
2023/02/01 11:15:23;;;;;;;18.85;3.50;;;6.90;99.90;;;;;;5016916;28;20300;-74
2023/02/01 11:18:18;;;;;;;16.02;4.15;;;6.90;99.90;;;;;;5021014;28;20201;-74
2023/02/01 11:21:05;;;;;;;15.88;3.85;;;7.00;99.90;;;;;;5020016;28;20222;-74
2023/02/01 11:23:51;;;;;;;18.77;3.78;;;7.00;99.90;;;;;;5025685;28;20221;-74
2023/02/01 11:26:42;;;;;;;13.98;5.53;;;7.00;99.90;;;;;;5020407;28;20221;-74
2023/02/01 11:29:39;;;;;;;34.40;13.60;;;7.00;99.90;;;;;;5028503;28;20329;-74
2023/02/01 11:32:26;;;;;;;23.52;8.65;;;7.00;99.90;;;;;;5024757;28;20208;-74
2023/02/01 11:35:17;;;;;;;13.90;5.18;;;7.00;99.90;;;;;;5018795;28;20566;-74
2023/02/01 11:38:13;;;;;;;23.67;10.15;;;7.00;99.90;;;;;;5013573;28;20215;-74
2023/02/01 11:41:14;;;;;;;18.83;5.88;;;7.00;99.90;;;;;;5057656;22;20318;-71
2023/02/01 11:44:03;;;;;;;20.57;5.03;;;7.10;99.90;;;;;;5051878;28;20539;-73
2023/02/01 11:46:48;;;;;;;21.40;7.55;;;7.00;99.90;;;;;;5034998;28;20457;-71
2023/02/01 11:49:34;;;;;;;19.65;5.43;;;7.00;99.90;;;;;;5047717;28;20217;-72
2023/02/01 11:52:43;;;;;;;18.88;4.40;;;7.00;99.90;;;;;;5046952;28;20204;-71
2023/02/01 11:55:48;;;;;;;27.35;8.20;;;7.00;99.90;;;;;;5049866;28;20213;-71
2023/02/01 11:59:11;;;;;;;41.88;12.98;;;7.00;99.90;;;;;;5047256;28;20205;-72
2023/02/01 12:02:13;;;;;;;18.52;5.38;;;7.00;99.90;;;;;;5043011;28;20228;-71
2023/02/01 12:05:13;;;;;;;17.43;4.60;;;7.00;99.90;;;;;;5047036;28;20201;-71
2023/02/01 12:08:22;;;;;;;26.70;4.87;;;7.00;99.90;;;;;;5044304;28;20442;-71
2023/02/01 12:11:26;;;;;;;11.73;4.50;;;7.10;99.90;;;;;;5048789;28;20459;-72
2023/02/01 12:14:29;;;;;;;16.60;3.80;;;7.10;99.90;;;;;;5046952;28;20313;-71
2023/02/01 12:17:43;;;;;;;20.90;4.65;;;7.10;99.90;;;;;;5039650;28;21111;-71
2023/02/01 12:20:42;;;;;;;29.15;6.28;;;7.20;99.90;;;;;;5045646;28;20241;-71
2023/02/01 12:23:43;;;;;;;14.40;3.63;;;7.30;99.90;;;;;;5044627;28;20217;-71
2023/02/01 12:26:51;;;;;;;13.98;4.10;;;7.20;99.90;;;;;;5037823;28;20327;-72
2023/02/01 12:30:00;;;;;;;12.75;4.25;;;7.10;99.90;;;;;;5049252;28;20204;-72
2023/02/01 12:33:01;;;;;;;9.07;2.92;;;7.10;99.90;;;;;;5047577;28;20220;-71
2023/02/01 12:36:03;;;;;;;19.87;3.10;;;7.10;99.90;;;;;;5040798;28;20251;-72
2023/02/01 12:38:55;;;;;;;21.35;3.65;;;7.10;99.90;;;;;;5047457;28;20704;-72
2023/02/01 12:41:58;;;;;;;17.37;3.13;;;7.20;99.90;;;;;;5046665;28;20713;-71
2023/02/01 12:44:51;;;;;;;14.80;3.15;;;7.20;99.90;;;;;;5050670;28;20566;-72
2023/02/01 12:47:42;;;;;;;22.52;3.63;;;7.20;99.90;;;;;;5039534;28;20208;-71
2023/02/01 12:50:32;;;;;;;14.07;3.83;;;7.30;99.90;;;;;;5045793;28;20734;-71
2023/02/01 12:53:24;;;;;;;18.35;3.55;;;7.20;99.90;;;;;;5054825;28;20224;-72
2023/02/01 12:56:15;;;;;;;11.25;3.15;;;7.20;99.90;;;;;;5047486;28;20200;-72
2023/02/01 12:59:04;;;;;;;16.77;3.85;;;7.20;99.90;;;;;;5046066;28;20421;-72
2023/02/01 13:01:58;;;;;;;12.50;3.53;;;7.20;99.90;;;;;;5038043;28;20221;-72
2023/02/01 13:04:58;;;;;;;16.37;2.90;;;7.10;99.90;;;;;;5053652;28;20290;-72
2023/02/01 13:07:50;;;;;;;10.60;3.72;;;7.20;99.90;;;;;;5051487;28;20537;-71
2023/02/01 13:10:40;;;;;;;16.00;3.43;;;7.20;99.90;;;;;;5047408;28;20295;-72
2023/02/01 13:13:33;;;;;;;13.48;4.25;;;7.30;99.90;;;;;;5048681;28;20841;-71
2023/02/01 13:16:31;;;;;;;11.33;3.20;;;7.20;99.90;;;;;;5048346;28;20213;-73
2023/02/01 13:19:21;;;;;;;15.70;3.67;;;7.20;99.90;;;;;;5057743;28;20446;-75
2023/02/01 13:22:13;;;;;;;10.60;3.13;;;7.20;99.90;;;;;;5051064;28;20470;-71
2023/02/01 13:25:01;;;;;;;9.47;2.80;;;7.20;99.90;;;;;;5040116;28;21771;-72
2023/02/01 13:27:47;;;;;;;19.93;3.70;;;7.20;99.90;;;;;;5053353;28;20987;-71
2023/02/01 13:30:44;;;;;;;13.50;3.60;;;7.30;99.90;;;;;;5052958;28;20463;-70
2023/02/01 13:34:00;;;;;;;19.08;5.65;;;7.20;99.90;;;;;;5052284;28;20444;-71
2023/02/01 13:37:04;;;;;;;16.50;3.80;;;7.30;99.90;;;;;;5044234;28;20355;-72
2023/02/01 13:40:06;;;;;;;14.45;3.60;;;7.20;99.90;;;;;;5050002;28;20471;-71
2023/02/01 13:42:54;;;;;;;13.35;3.17;;;7.20;99.90;;;;;;5049158;28;20208;-71
2023/02/01 13:45:47;;;;;;;14.02;3.38;;;7.20;99.90;;;;;;5042365;28;20696;-71
2023/02/01 13:48:40;;;;;;;11.90;3.20;;;7.20;99.90;;;;;;5054457;28;20209;-71
2023/02/01 13:51:36;;;;;;;14.57;3.23;;;7.20;99.90;;;;;;5046529;28;20249;-72
2023/02/01 13:54:30;;;;;;;10.63;3.03;;;7.20;99.90;;;;;;5053468;28;20529;-71
2023/02/01 13:57:36;;;;;;;23.63;5.63;;;7.20;99.90;;;;;;5049419;28;20541;-71
2023/02/01 14:00:30;;;;;;;13.87;3.80;;;7.20;99.90;;;;;;5049532;28;20449;-71
2023/02/01 14:03:18;;;;;;;12.93;3.17;;;7.20;99.90;;;;;;5045938;28;20829;-71
2023/02/01 14:06:37;;;;;;;12.32;3.70;;;7.20;99.90;;;;;;5046949;28;20439;-71
2023/02/01 14:09:36;;;;;;;21.02;4.20;;;7.20;99.90;;;;;;5045171;28;20209;-71
2023/02/01 14:12:46;;;;;;;13.20;4.40;;;7.20;99.90;;;;;;5041807;28;20205;-71
2023/02/01 14:15:31;;;;;;;25.13;4.47;;;7.20;99.90;;;;;;5039214;28;20256;-71
2023/02/01 14:18:50;;;;;;;22.45;5.35;;;7.20;99.90;;;;;;5054431;28;20809;-71
2023/02/01 14:21:48;;;;;;;15.87;5.40;;;7.20;99.90;;;;;;5045681;28;20799;-70
2023/02/01 14:24:37;;;;;;;8.57;2.87;;;7.20;99.90;;;;;;5043689;28;20585;-72
2023/02/01 14:27:25;;;;;;;16.08;5.50;;;7.30;99.90;;;;;;5058704;28;20447;-72
2023/02/01 14:30:17;;;;;;;15.93;3.63;;;7.30;99.90;;;;;;5050783;28;20577;-71
2023/02/01 14:33:19;;;;;;;7.25;2.80;;;7.20;99.90;;;;;;5054561;28;20316;-72
2023/02/01 14:36:08;;;;;;;13.18;3.20;;;7.30;99.90;;;;;;5037938;28;20210;-72
2023/02/01 14:38:54;;;;;;;11.65;3.10;;;7.30;99.90;;;;;;5049764;28;20674;-71
2023/02/01 14:41:44;;;;;;;21.40;4.13;;;7.20;99.90;;;;;;5045972;28;20228;-72
2023/02/01 14:44:32;;;;;;;10.52;3.40;;;7.30;99.90;;;;;;5045644;28;20208;-73
2023/02/01 14:47:34;;;;;;;13.13;3.23;;;7.30;99.90;;;;;;5049330;28;20193;-71
2023/02/01 14:50:36;;;;;;;16.25;4.95;;;7.30;99.90;;;;;;5049497;28;20463;-72
2023/02/01 14:53:34;;;;;;;24.25;4.90;;;7.30;99.90;;;;;;5045082;28;20257;-72
2023/02/01 14:56:21;;;;;;;12.75;3.53;;;7.30;99.90;;;;;;5046781;28;20675;-72
2023/02/01 14:59:16;;;;;;;18.13;3.25;;;7.40;99.90;;;;;;5048920;28;20212;-71
2023/02/01 15:02:03;;;;;;;17.77;3.50;;;7.40;99.90;;;;;;5047036;28;20276;-72
2023/02/01 15:04:55;;;;;;;9.75;2.20;;;7.40;99.90;;;;;;5043744;28;20250;-73
2023/02/01 15:07:41;;;;;;;7.45;2.88;;;7.30;99.90;;;;;;5052481;28;20205;-71
2023/02/01 15:10:27;;;;;;;13.60;3.17;;;7.40;99.90;;;;;;5046881;28;20236;-72
2023/02/01 15:13:24;;;;;;;10.70;3.65;;;7.40;99.90;;;;;;5045261;28;20451;-72
2023/02/01 15:16:14;;;;;;;5.93;2.50;;;7.40;99.90;;;;;;5052661;28;20216;-71
2023/02/01 15:19:09;;;;;;;17.00;3.80;;;7.40;99.90;;;;;;5037770;28;20205;-71